createdAt,value
2018-06-27T00:01:47.920Z,5.70
2018-06-27T00:04:15.977Z,5.20
2018-06-27T00:06:44.108Z,5.37
2018-06-27T00:09:12.172Z,4.50
2018-06-27T00:11:40.268Z,5.13
2018-06-27T00:14:08.350Z,5.50
2018-06-27T00:16:36.473Z,5.40
2018-06-27T00:19:04.339Z,5.07
2018-06-27T00:21:32.179Z,4.53
2018-06-27T00:24:00.235Z,5.60
2018-06-27T00:26:28.296Z,4.33
2018-06-27T00:28:56.454Z,4.70
2018-06-27T00:31:24.512Z,6.20
2018-06-27T00:33:52.646Z,6.33
2018-06-27T00:36:20.726Z,5.13
2018-06-27T00:38:48.822Z,5.17
2018-06-27T00:41:16.885Z,7.07
2018-06-27T00:43:45.005Z,7.93
2018-06-27T00:46:13.220Z,5.37
2018-06-27T00:48:41.322Z,5.47
2018-06-27T00:51:09.380Z,4.53
2018-06-27T00:53:43.174Z,4.53
2018-06-27T00:56:11.228Z,5.93
2018-06-27T00:58:39.373Z,5.43
2018-06-27T01:01:07.477Z,5.13
2018-06-27T01:03:35.616Z,4.70
2018-06-27T01:06:03.744Z,5.27
2018-06-27T01:08:31.837Z,5.57
2018-06-27T01:10:59.884Z,3.80
2018-06-27T01:13:28.092Z,6.70
2018-06-27T01:15:56.189Z,4.90
2018-06-27T01:18:24.297Z,6.07
2018-06-27T01:20:52.411Z,7.33
2018-06-27T01:23:20.494Z,6.40
2018-06-27T01:25:48.609Z,5.57
2018-06-27T01:28:16.712Z,4.70
2018-06-27T01:30:44.763Z,5.67
2018-06-27T01:33:12.812Z,5.60
2018-06-27T01:35:40.880Z,6.23
2018-06-27T01:38:08.924Z,4.60
2018-06-27T01:40:36.971Z,5.70
2018-06-27T01:43:05.191Z,5.53
2018-06-27T01:45:33.253Z,6.20
2018-06-27T01:48:01.300Z,6.33
2018-06-27T01:50:29.484Z,6.17
2018-06-27T01:52:57.597Z,6.10
2018-06-27T01:55:25.508Z,5.40
2018-06-27T01:57:53.593Z,6.87
2018-06-27T02:00:21.681Z,5.40
2018-06-27T02:02:49.819Z,5.33
2018-06-27T02:05:17.904Z,6.27
2018-06-27T02:07:45.981Z,5.07
2018-06-27T02:10:14.130Z,4.77
2018-06-27T02:12:42.204Z,6.47
2018-06-27T02:15:10.275Z,6.17
2018-06-27T02:17:38.344Z,6.37
2018-06-27T02:20:06.512Z,5.33
2018-06-27T02:22:34.435Z,5.00
2018-06-27T02:25:02.487Z,6.70
2018-06-27T02:27:30.548Z,5.03
2018-06-27T02:29:58.706Z,5.50
2018-06-27T02:32:26.799Z,5.87
2018-06-27T02:34:54.893Z,5.27
2018-06-27T02:37:22.972Z,5.17
2018-06-27T02:39:51.061Z,4.37
2018-06-27T02:42:19.152Z,5.57
2018-06-27T02:44:47.239Z,6.43
2018-06-27T02:47:15.302Z,4.87
2018-06-27T02:49:43.394Z,5.73
2018-06-27T02:52:11.436Z,5.67
2018-06-27T02:54:39.661Z,6.67
2018-06-27T02:57:07.706Z,5.43
2018-06-27T02:59:35.769Z,4.90
2018-06-27T03:02:03.616Z,5.70
2018-06-27T03:04:31.705Z,4.77
2018-06-27T03:06:59.765Z,6.80
2018-06-27T03:09:27.826Z,5.30
2018-06-27T03:11:55.945Z,5.83
2018-06-27T03:14:24.005Z,5.47
2018-06-27T03:16:52.090Z,5.90
2018-06-27T03:19:20.191Z,4.13
2018-06-27T03:21:48.444Z,4.90
2018-06-27T03:24:16.564Z,6.17
2018-06-27T03:26:44.623Z,3.73
2018-06-27T03:29:12.732Z,5.03
2018-06-27T03:31:40.816Z,5.40
2018-06-27T03:34:08.898Z,5.53
2018-06-27T03:36:36.951Z,4.93
2018-06-27T03:39:07.260Z,5.37
2018-06-27T03:41:35.422Z,5.77
2018-06-27T03:44:03.472Z,5.67
2018-06-27T03:46:31.585Z,6.27
2018-06-27T03:48:59.645Z,6.93
2018-06-27T03:51:27.835Z,5.53
2018-06-27T03:53:58.892Z,5.57
2018-06-27T03:56:27.496Z,5.70
2018-06-27T03:58:55.572Z,6.87
2018-06-27T04:01:23.690Z,6.17
2018-06-27T04:03:51.835Z,5.63
2018-06-27T04:06:19.939Z,3.97
2018-06-27T04:08:49.067Z,4.80
2018-06-27T04:11:17.139Z,6.37
2018-06-27T04:13:45.187Z,5.67
2018-06-27T04:16:13.364Z,5.13
2018-06-27T04:18:41.461Z,5.67
2018-06-27T04:21:09.596Z,4.83
2018-06-27T04:23:37.678Z,5.03
2018-06-27T04:26:05.736Z,4.70
2018-06-27T04:28:33.889Z,5.80
2018-06-27T04:31:02.020Z,5.90
2018-06-27T04:33:30.104Z,6.07
2018-06-27T04:35:58.240Z,6.93
2018-06-27T04:38:26.256Z,4.47
2018-06-27T04:40:54.348Z,5.97
2018-06-27T04:43:22.509Z,4.60
2018-06-27T04:45:50.593Z,5.93
2018-06-27T04:48:18.698Z,5.23
2018-06-27T04:50:47.000Z,4.97
2018-06-27T04:53:15.142Z,6.77
2018-06-27T04:55:43.270Z,6.63
2018-06-27T04:58:12.334Z,4.90
2018-06-27T05:00:40.399Z,5.10
2018-06-27T05:03:08.500Z,4.87
2018-06-27T05:05:38.218Z,5.43
2018-06-27T05:08:06.285Z,5.67
2018-06-27T05:10:34.223Z,3.90
2018-06-27T05:15:55.565Z,6.00
2018-06-27T05:18:23.840Z,4.63
2018-06-27T05:20:51.896Z,4.90
2018-06-27T05:23:20.039Z,6.13
2018-06-27T05:25:48.169Z,5.23
2018-06-27T05:28:16.241Z,5.43
2018-06-27T05:30:44.305Z,5.60
2018-06-27T05:33:12.392Z,5.97
2018-06-27T05:35:40.449Z,6.77
2018-06-27T05:38:08.518Z,5.10
2018-06-27T05:40:36.603Z,5.10
2018-06-27T05:43:04.907Z,4.47
2018-06-27T05:45:32.980Z,5.50
2018-06-27T05:48:01.044Z,8.17
2018-06-27T05:50:29.101Z,5.23
2018-06-27T05:52:57.173Z,4.70
2018-06-27T05:55:25.342Z,4.50
2018-06-27T05:57:53.510Z,4.13
2018-06-27T06:00:21.616Z,5.20
2018-06-27T06:02:49.708Z,4.17
2018-06-27T06:05:17.860Z,5.57
2018-06-27T06:07:45.938Z,4.73
2018-06-27T06:10:14.017Z,5.17
2018-06-27T06:12:42.109Z,5.13
2018-06-27T06:15:10.017Z,5.23
2018-06-27T06:17:38.100Z,5.73
2018-06-27T06:20:06.177Z,5.60
2018-06-27T06:22:34.252Z,5.33
2018-06-27T06:25:02.374Z,6.70
2018-06-27T06:27:30.475Z,4.93
2018-06-27T06:29:58.569Z,4.33
2018-06-27T06:32:26.643Z,3.63
2018-06-27T06:34:54.781Z,4.33
2018-06-27T06:37:22.857Z,4.90
2018-06-27T06:39:51.039Z,4.60
2018-06-27T06:42:18.931Z,4.43
2018-06-27T06:44:47.073Z,4.27
2018-06-27T06:47:15.148Z,5.23
2018-06-27T06:49:43.300Z,5.00
2018-06-27T06:52:11.419Z,4.13
2018-06-27T06:54:39.484Z,4.70
2018-06-27T06:57:07.577Z,4.53
2018-06-27T06:59:35.692Z,4.20
2018-06-27T07:02:03.773Z,3.50
2018-06-27T07:04:31.836Z,4.77
2018-06-27T07:07:00.129Z,4.20
2018-06-27T07:09:28.260Z,5.37
2018-06-27T07:11:56.373Z,4.27
2018-06-27T07:14:24.647Z,3.83
2018-06-27T07:16:52.907Z,4.93
2018-06-27T07:19:21.208Z,4.13
2018-06-27T07:21:49.302Z,3.53
2018-06-27T07:24:17.449Z,4.83
2018-06-27T07:26:45.561Z,3.13
2018-06-27T07:29:13.732Z,3.27
2018-06-27T07:31:41.836Z,3.20
2018-06-27T07:34:09.961Z,3.97
2018-06-27T07:36:38.065Z,9.13
2018-06-27T07:39:08.691Z,5.67
2018-06-27T07:41:37.110Z,5.43
2018-06-27T07:44:05.172Z,1159.20
2018-06-27T07:46:33.638Z,694.10
2018-06-27T07:49:01.885Z,457.10
2018-06-27T07:51:30.001Z,146.07
2018-06-27T07:53:58.140Z,158.33
2018-06-27T07:56:26.373Z,126.50
2018-06-27T07:58:54.503Z,102.60
2018-06-27T08:01:22.748Z,106.40
2018-06-27T08:03:50.897Z,114.93
2018-06-27T08:06:18.787Z,110.40
2018-06-27T08:08:46.659Z,100.00
2018-06-27T08:11:14.833Z,78.93
2018-06-27T08:13:43.089Z,85.07
2018-06-27T08:16:11.280Z,81.30
2018-06-27T08:18:41.528Z,86.57
2018-06-27T08:21:09.928Z,105.23
2018-06-27T08:23:38.113Z,76.17
2018-06-27T08:26:06.255Z,82.00
2018-06-27T08:28:34.166Z,90.37
2018-06-27T08:31:02.361Z,87.53
2018-06-27T08:33:30.499Z,66.07
2018-06-27T08:35:58.685Z,65.47
2018-06-27T08:38:26.737Z,78.37
2018-06-27T08:40:54.780Z,62.63
2018-06-27T08:43:22.897Z,69.10
2018-06-27T08:45:51.081Z,62.07
2018-06-27T08:48:19.217Z,72.60
2018-06-27T08:50:47.396Z,55.47
2018-06-27T08:53:15.480Z,50.63
2018-06-27T08:55:43.620Z,70.93
2018-06-27T08:58:11.794Z,56.60
2018-06-27T09:00:39.877Z,67.23
2018-06-27T09:03:07.948Z,85.40
2018-06-27T09:05:36.039Z,93.17
2018-06-27T09:08:04.157Z,71.87
2018-06-27T09:10:32.237Z,102.07
2018-06-27T09:13:00.437Z,77.13
2018-06-27T09:15:28.384Z,76.60
2018-06-27T09:17:56.453Z,75.20
2018-06-27T09:20:24.556Z,62.63
2018-06-27T09:22:52.801Z,76.63
2018-06-27T09:25:20.917Z,58.33
2018-06-27T09:27:49.090Z,67.80
2018-06-27T09:30:17.225Z,65.23
2018-06-27T09:32:45.393Z,66.90
2018-06-27T09:35:13.486Z,63.57
2018-06-27T09:37:41.652Z,75.83
2018-06-27T09:40:09.773Z,66.07
2018-06-27T09:42:37.865Z,74.87
2018-06-27T09:45:06.009Z,60.93
2018-06-27T09:47:34.072Z,63.67
2018-06-27T09:50:02.161Z,56.30
2018-06-27T09:52:30.440Z,54.07
2018-06-27T09:54:58.668Z,47.20
2018-06-27T09:57:26.908Z,38.50
2018-06-27T09:59:55.006Z,39.80
2018-06-27T10:02:23.180Z,35.57
2018-06-27T10:04:51.634Z,34.20
2018-06-27T10:07:20.004Z,42.97
2018-06-27T10:09:48.224Z,44.13
2018-06-27T10:12:16.289Z,46.33
2018-06-27T10:14:44.361Z,62.80
2018-06-27T10:17:12.502Z,141.13
2018-06-27T10:19:40.560Z,85.13
2018-06-27T10:22:08.737Z,117.50
2018-06-27T10:24:36.636Z,87.23
2018-06-27T10:27:04.939Z,60.73
2018-06-27T10:29:33.008Z,80.73
2018-06-27T10:32:01.141Z,70.40
2018-06-27T10:34:30.102Z,73.10
2018-06-27T10:36:58.304Z,90.70
2018-06-27T10:39:26.286Z,68.63
2018-06-27T10:41:54.441Z,67.30
2018-06-27T10:44:22.561Z,61.20
2018-06-27T10:46:50.775Z,65.43
2018-06-27T10:49:18.987Z,55.60
2018-06-27T10:51:47.201Z,57.53
2018-06-27T10:54:15.248Z,48.73
2018-06-27T10:56:43.328Z,49.07
2018-06-27T10:59:11.391Z,47.67
2018-06-27T11:01:39.484Z,35.17
2018-06-27T11:04:07.652Z,40.13
2018-06-27T11:06:35.749Z,38.37
2018-06-27T11:09:05.733Z,45.60
2018-06-27T11:11:33.668Z,38.97
2018-06-27T11:14:01.762Z,21.43
2018-06-27T11:16:30.010Z,25.53
2018-06-27T11:18:57.915Z,28.87
2018-06-27T11:21:25.999Z,23.10
2018-06-27T11:23:54.139Z,21.57
2018-06-27T11:26:22.180Z,26.20
2018-06-27T11:28:50.302Z,27.77
2018-06-27T11:31:18.417Z,26.00
2018-06-27T11:33:46.489Z,27.07
2018-06-27T11:36:14.726Z,24.40
2018-06-27T11:38:42.895Z,21.43
2018-06-27T11:41:11.011Z,28.10
2018-06-27T11:43:39.401Z,20.27
2018-06-27T11:46:07.500Z,15.00
2018-06-27T11:48:35.613Z,20.90
2018-06-27T11:51:03.480Z,18.03
2018-06-27T11:53:31.592Z,18.40
2018-06-27T11:55:59.781Z,15.70
2018-06-27T11:58:28.117Z,20.87
2018-06-27T12:00:56.308Z,13.40
2018-06-27T12:03:24.492Z,14.47
2018-06-27T12:05:52.649Z,15.20
2018-06-27T12:08:20.780Z,14.70
2018-06-27T12:10:49.246Z,12.17
2018-06-27T12:13:17.321Z,8.07
2018-06-27T12:15:45.425Z,9.90
2018-06-27T12:18:13.631Z,16.10
2018-06-27T12:20:41.796Z,19.60
2018-06-27T12:23:09.889Z,11.40
2018-06-27T12:25:38.012Z,13.97
2018-06-27T12:28:06.172Z,10.30
2018-06-27T12:30:34.209Z,12.00
2018-06-27T12:33:02.301Z,13.07
2018-06-27T12:35:30.756Z,9.80
2018-06-27T12:37:58.825Z,20.57
2018-06-27T12:40:26.994Z,10.80
2018-06-27T12:42:55.238Z,8.57
2018-06-27T12:45:23.509Z,11.13
2018-06-27T12:47:51.801Z,9.73
2018-06-27T12:50:20.014Z,13.10
2018-06-27T12:52:48.214Z,12.87
2018-06-27T12:55:16.305Z,11.67
2018-06-27T12:57:44.383Z,14.77
2018-06-27T13:00:12.454Z,12.30
2018-06-27T13:02:40.517Z,10.10
2018-06-27T13:05:09.336Z,8.90
2018-06-27T13:07:37.406Z,5.80
2018-06-27T13:10:06.988Z,6.67
2018-06-27T13:12:35.120Z,5.20
2018-06-27T13:15:03.218Z,9.33
2018-06-27T13:17:31.332Z,8.30
2018-06-27T13:19:59.192Z,8.40
2018-06-27T13:22:27.320Z,5.47
2018-06-27T13:24:55.486Z,5.03
2018-06-27T13:27:24.013Z,6.07
2018-06-27T13:29:52.010Z,7.70
2018-06-27T13:32:20.162Z,8.53
2018-06-27T13:34:48.287Z,11.67
2018-06-27T13:37:16.393Z,13.50
2018-06-27T13:39:44.456Z,5.73
2018-06-27T13:42:12.550Z,7.40
2018-06-27T13:44:40.656Z,4.67
2018-06-27T13:47:08.718Z,6.67
2018-06-27T13:49:36.808Z,7.23
2018-06-27T13:52:04.965Z,8.33
2018-06-27T13:54:33.102Z,13.20
2018-06-27T13:57:01.281Z,6.40
2018-06-27T13:59:29.428Z,11.63
2018-06-27T14:01:57.533Z,5.70
2018-06-27T14:04:25.675Z,4.53
2018-06-27T14:06:53.854Z,4.97
2018-06-27T14:09:22.101Z,5.73
2018-06-27T14:11:50.229Z,5.23
2018-06-27T14:14:18.393Z,5.00
2018-06-27T14:16:46.469Z,5.00
2018-06-27T14:19:14.589Z,5.00
2018-06-27T14:21:42.475Z,5.00
2018-06-27T14:24:10.637Z,5.73
2018-06-27T14:26:38.752Z,3.53
2018-06-27T14:29:06.668Z,3.33
2018-06-27T14:31:34.853Z,4.10
2018-06-27T14:34:02.912Z,5.23
2018-06-27T14:36:31.050Z,3.40
2018-06-27T14:38:59.173Z,5.10
2018-06-27T14:41:27.241Z,5.33
2018-06-27T14:43:55.308Z,6.73
2018-06-27T14:46:23.518Z,5.53
2018-06-27T14:48:51.414Z,6.20
2018-06-27T14:51:19.752Z,6.87
2018-06-27T14:53:47.926Z,13.47
2018-06-27T14:56:16.085Z,22.20
2018-06-27T14:58:44.225Z,3.63
2018-06-27T15:01:12.085Z,9.00
2018-06-27T15:03:40.148Z,6.47
2018-06-27T15:06:08.289Z,5.67
2018-06-27T15:08:36.553Z,4.73
2018-06-27T15:11:04.581Z,3.73
2018-06-27T15:13:32.720Z,4.57
2018-06-27T15:16:00.833Z,5.47
2018-06-27T15:18:28.922Z,7.93
2018-06-27T15:20:56.893Z,5.63
2018-06-27T15:23:25.092Z,3.60
2018-06-27T15:25:53.236Z,5.57
2018-06-27T15:28:21.351Z,9.73
2018-06-27T15:30:49.525Z,9.13
2018-06-27T15:33:18.174Z,2.13
2018-06-27T15:35:46.577Z,3.30
2018-06-27T15:38:14.575Z,4.00
2018-06-27T15:40:42.727Z,3.67
2018-06-27T15:43:10.769Z,2.07
2018-06-27T15:45:38.860Z,4.47
2018-06-27T15:48:06.961Z,4.40
2018-06-27T15:50:35.084Z,2.07
2018-06-27T15:53:03.704Z,4.13
2018-06-27T15:55:31.789Z,3.47
2018-06-27T15:57:59.868Z,6.77
2018-06-27T16:00:28.009Z,4.90
2018-06-27T16:02:56.161Z,4.17
2018-06-27T16:05:24.275Z,5.33
2018-06-27T16:07:52.429Z,7.37
2018-06-27T16:10:20.556Z,1.87
2018-06-27T16:12:48.850Z,2.53
2018-06-27T16:15:17.448Z,2.47
2018-06-27T16:17:45.552Z,2.83
2018-06-27T16:20:13.805Z,3.50
2018-06-27T16:22:41.932Z,2.63
2018-06-27T16:25:10.013Z,2.97
2018-06-27T16:27:38.085Z,3.10
2018-06-27T16:30:06.733Z,2.57
2018-06-27T16:32:34.893Z,2.33
2018-06-27T16:35:02.935Z,2.93
2018-06-27T16:37:31.291Z,2.87
2018-06-27T16:39:59.415Z,1.87
2018-06-27T16:42:27.521Z,1.97
2018-06-27T16:44:55.660Z,3.40
2018-06-27T16:47:23.800Z,3.67
2018-06-27T16:49:51.914Z,1.70
2018-06-27T16:52:20.057Z,2.17
2018-06-27T16:54:48.344Z,3.80
2018-06-27T16:57:16.358Z,2.97
2018-06-27T16:59:44.479Z,2.83
2018-06-27T17:02:12.559Z,3.70
2018-06-27T17:04:40.666Z,3.73
2018-06-27T17:07:08.798Z,1.70
2018-06-27T17:09:36.889Z,2.43
2018-06-27T17:12:05.064Z,2.37
2018-06-27T17:14:33.184Z,2.90
2018-06-27T17:17:01.167Z,1.90
2018-06-27T17:19:29.333Z,4.43
2018-06-27T17:21:57.501Z,3.53
2018-06-27T17:24:25.679Z,1.90
2018-06-27T17:26:53.769Z,1.67
2018-06-27T17:29:21.900Z,3.00
2018-06-27T17:31:49.991Z,3.57
2018-06-27T17:34:18.725Z,2.60
2018-06-27T17:36:47.149Z,2.17
2018-06-27T17:39:15.336Z,1.70
2018-06-27T17:41:43.401Z,1.60
2018-06-27T17:44:11.460Z,1.50
2018-06-27T17:46:39.572Z,1.43
2018-06-27T17:49:07.764Z,2.00
2018-06-27T17:51:35.890Z,2.90
2018-06-27T17:54:03.816Z,2.20
2018-06-27T17:56:31.928Z,1.77
2018-06-27T17:58:59.993Z,1.90
2018-06-27T18:01:28.074Z,1.77
2018-06-27T18:03:56.185Z,2.30
2018-06-27T18:06:24.297Z,3.33
2018-06-27T18:08:52.443Z,1.90
2018-06-27T18:11:20.553Z,1.77
2018-06-27T18:13:48.660Z,1.90
2018-06-27T18:16:16.768Z,2.77
2018-06-27T18:18:44.900Z,3.53
2018-06-27T18:21:13.026Z,1.77
2018-06-27T18:23:41.105Z,2.57
2018-06-27T18:26:09.201Z,1.67
2018-06-27T18:28:37.293Z,1.77
2018-06-27T18:31:05.405Z,1.83
2018-06-27T18:33:33.485Z,1.70
2018-06-27T18:36:01.605Z,2.13
2018-06-27T18:38:29.726Z,1.83
2018-06-27T18:40:57.808Z,1.63
2018-06-27T18:43:25.924Z,1.60
2018-06-27T18:45:54.140Z,1.47
2018-06-27T18:48:22.248Z,1.50
2018-06-27T18:50:50.523Z,1.90
2018-06-27T18:53:19.189Z,1.77
2018-06-27T18:55:47.307Z,1.50
2018-06-27T18:58:15.441Z,2.27
2018-06-27T19:00:43.500Z,2.10
2018-06-27T19:03:11.648Z,2.53
2018-06-27T19:05:39.822Z,2.43
2018-06-27T19:08:07.934Z,2.80
2018-06-27T19:10:35.996Z,1.77
2018-06-27T19:13:03.852Z,1.57
2018-06-27T19:15:31.957Z,1.27
2018-06-27T19:18:00.091Z,2.40
2018-06-27T19:20:28.160Z,2.10
2018-06-27T19:22:56.077Z,1.87
2018-06-27T19:25:24.196Z,1.50
2018-06-27T19:27:52.379Z,1.80
2018-06-27T19:30:20.495Z,1.63
2018-06-27T19:32:48.736Z,1.77
2018-06-27T19:35:16.805Z,1.47
2018-06-27T19:37:45.027Z,1.63
2018-06-27T19:40:13.088Z,1.70
2018-06-27T19:42:41.174Z,1.60
2018-06-27T19:45:09.236Z,2.53
2018-06-27T19:47:37.448Z,1.80
2018-06-27T19:50:05.537Z,1.60
2018-06-27T19:52:33.616Z,1.83
2018-06-27T19:55:01.637Z,2.00
2018-06-27T19:57:29.807Z,1.33
2018-06-27T19:59:57.940Z,2.27
2018-06-27T20:02:26.208Z,1.60
2018-06-27T20:04:54.354Z,2.07
2018-06-27T20:07:22.622Z,1.77
2018-06-27T20:09:50.634Z,1.80
2018-06-27T20:12:18.724Z,1.70
2018-06-27T20:14:46.823Z,1.73
2018-06-27T20:17:16.109Z,2.90
2018-06-27T20:19:44.801Z,1.43
2018-06-27T20:22:12.907Z,1.87
2018-06-27T20:24:40.952Z,1.57
2018-06-27T20:27:09.017Z,2.43
2018-06-27T20:29:37.099Z,1.57
2018-06-27T20:32:05.277Z,1.67
2018-06-27T20:34:33.345Z,1.53
2018-06-27T20:37:01.512Z,1.80
2018-06-27T20:39:29.724Z,2.57
2018-06-27T20:41:57.876Z,2.50
2018-06-27T20:44:25.978Z,1.60
2018-06-27T20:46:54.060Z,1.70
2018-06-27T20:49:22.244Z,2.50
2018-06-27T20:51:50.396Z,1.73
2018-06-27T20:54:18.535Z,1.83
2018-06-27T20:56:46.596Z,1.80
2018-06-27T20:59:14.677Z,1.70
2018-06-27T21:01:42.744Z,2.87
2018-06-27T21:04:10.829Z,2.70
2018-06-27T21:06:38.889Z,1.40
2018-06-27T21:09:08.653Z,3.97
2018-06-27T21:11:36.882Z,2.27
2018-06-27T21:14:05.013Z,1.60
2018-06-27T21:16:33.070Z,1.50
2018-06-27T21:19:01.117Z,2.17
2018-06-27T21:21:29.282Z,1.47
2018-06-27T21:23:57.376Z,1.80
2018-06-27T21:26:25.512Z,3.27
2018-06-27T21:28:53.608Z,1.50
2018-06-27T21:31:21.728Z,1.63
2018-06-27T21:33:49.865Z,1.80
2018-06-27T21:36:18.010Z,1.77
2018-06-27T21:38:46.104Z,2.00
2018-06-27T21:41:14.160Z,1.60
2018-06-27T21:43:42.253Z,1.83
2018-06-27T21:46:10.309Z,1.60
2018-06-27T21:48:38.405Z,1.73
2018-06-27T21:51:06.551Z,1.80
2018-06-27T21:53:34.388Z,1.90
2018-06-27T21:56:02.583Z,1.60
2018-06-27T21:58:30.716Z,2.97
2018-06-27T22:00:58.788Z,1.60
2018-06-27T22:03:26.937Z,1.83
2018-06-27T22:05:55.057Z,1.97
2018-06-27T22:08:23.164Z,2.57
2018-06-27T22:10:51.293Z,2.70
2018-06-27T22:13:19.385Z,1.83
2018-06-27T22:15:47.437Z,1.40
2018-06-27T22:18:15.621Z,2.13
2018-06-27T22:20:43.706Z,2.43
2018-06-27T22:23:11.800Z,2.43
2018-06-27T22:25:39.861Z,1.63
2018-06-27T22:28:07.924Z,1.47
2018-06-27T22:30:36.005Z,1.90
2018-06-27T22:33:03.848Z,2.27
2018-06-27T22:35:31.956Z,1.73
2018-06-27T22:38:00.086Z,1.70
2018-06-27T22:40:28.198Z,2.07
2018-06-27T22:42:56.377Z,1.60
2018-06-27T22:45:24.455Z,1.67
2018-06-27T22:47:52.703Z,2.07
2018-06-27T22:50:20.809Z,2.07
2018-06-27T22:52:48.996Z,1.97
2018-06-27T22:55:17.093Z,1.50
2018-06-27T22:57:45.174Z,1.40
2018-06-27T23:00:13.330Z,2.07
2018-06-27T23:02:41.405Z,1.30
2018-06-27T23:05:09.618Z,2.13
2018-06-27T23:07:37.680Z,2.47
2018-06-27T23:10:06.069Z,2.40
2018-06-27T23:12:34.129Z,1.50
2018-06-27T23:15:02.312Z,1.60
2018-06-27T23:17:30.413Z,2.20
2018-06-27T23:19:58.565Z,1.93
2018-06-27T23:22:38.264Z,1.30
2018-06-27T23:25:06.421Z,1.57
2018-06-27T23:27:34.583Z,1.87
2018-06-27T23:30:02.655Z,1.63
2018-06-27T23:32:30.815Z,1.63
2018-06-27T23:34:59.009Z,1.73
2018-06-27T23:37:27.230Z,1.63
2018-06-27T23:39:55.540Z,2.00
2018-06-27T23:42:23.711Z,2.07
2018-06-27T23:44:51.810Z,1.87
2018-06-27T23:47:19.917Z,1.40
2018-06-27T23:49:48.219Z,1.27
2018-06-27T23:52:16.553Z,1.60
2018-06-27T23:54:44.741Z,1.67
2018-06-27T23:57:13.016Z,1.43
2018-06-27T23:59:41.113Z,1.50
